createdAt,value
2018-05-31T16:38:14.703Z,24.60
2018-05-31T16:40:42.605Z,24.60
2018-05-31T16:43:17.409Z,24.60
2018-05-31T16:45:45.835Z,24.50
2018-05-31T16:48:13.639Z,24.60
2018-05-31T16:50:42.218Z,24.40
2018-05-31T16:53:10.691Z,24.40
2018-05-31T16:55:39.311Z,24.30
2018-05-31T16:58:07.929Z,24.20
2018-05-31T17:00:35.521Z,24.20
2018-05-31T17:03:03.255Z,24.10
2018-05-31T17:05:30.937Z,24.00
2018-05-31T17:07:58.695Z,23.90
2018-05-31T17:10:27.037Z,23.80
2018-05-31T17:12:54.681Z,23.80
2018-05-31T17:15:22.521Z,23.70
2018-05-31T17:17:50.828Z,23.60
2018-05-31T17:20:18.395Z,23.50
2018-05-31T17:22:46.032Z,23.50
2018-05-31T17:25:14.381Z,23.40
2018-05-31T17:27:42.467Z,23.40
2018-05-31T17:30:10.259Z,23.30
2018-05-31T17:32:40.077Z,23.10
2018-05-31T17:35:07.820Z,23.10
2018-05-31T17:37:35.585Z,23.00
2018-05-31T17:40:03.906Z,22.80
2018-05-31T17:42:31.571Z,22.80
2018-05-31T17:44:59.265Z,22.80
2018-05-31T17:47:26.771Z,22.70
2018-05-31T17:49:55.189Z,22.60
2018-05-31T17:52:22.787Z,22.60
2018-05-31T17:54:50.317Z,22.60
2018-05-31T17:57:17.979Z,22.50
2018-05-31T17:59:45.775Z,22.40
2018-05-31T18:02:13.614Z,22.30
2018-05-31T18:04:41.311Z,22.20
2018-05-31T18:07:08.983Z,22.20
2018-05-31T18:09:36.731Z,22.10
2018-05-31T18:12:04.720Z,22.00
2018-05-31T18:14:32.342Z,21.90
2018-05-31T18:17:00.185Z,21.80
2018-05-31T18:19:28.055Z,21.70
2018-05-31T18:21:56.528Z,21.70
2018-05-31T18:24:24.323Z,21.70
2018-05-31T18:26:52.124Z,21.60
2018-05-31T18:29:19.710Z,21.60
2018-05-31T18:31:48.294Z,21.50
2018-05-31T18:34:16.992Z,21.50
2018-05-31T18:36:44.944Z,21.40
2018-05-31T18:39:12.684Z,21.40
2018-05-31T18:41:40.306Z,21.40
2018-05-31T18:44:08.160Z,21.30
2018-05-31T18:46:36.819Z,21.20
2018-05-31T18:49:04.626Z,21.20
2018-05-31T18:51:32.935Z,21.20
2018-05-31T18:54:00.785Z,21.20
2018-05-31T18:56:28.463Z,21.10
2018-05-31T18:58:56.452Z,21.10
2018-05-31T19:01:24.322Z,21.10
2018-05-31T19:03:52.123Z,21.00
2018-05-31T19:06:20.393Z,21.00
2018-05-31T19:08:49.554Z,20.90
2018-05-31T19:11:17.730Z,20.90
2018-05-31T19:13:52.066Z,20.90
2018-05-31T19:16:19.632Z,20.80
2018-05-31T19:18:52.964Z,20.80
2018-05-31T19:21:20.540Z,20.70
2018-05-31T19:23:48.152Z,20.60
2018-05-31T19:26:16.041Z,20.50
2018-05-31T19:28:44.670Z,20.30
2018-05-31T19:31:12.293Z,20.30
2018-05-31T19:33:40.669Z,20.20
2018-05-31T19:36:14.688Z,20.10
2018-05-31T19:38:43.086Z,20.10
2018-05-31T19:41:11.683Z,20.00
2018-05-31T19:43:45.600Z,20.00
2018-05-31T19:46:13.125Z,19.90
2018-05-31T19:48:41.544Z,19.70
2018-05-31T19:51:10.260Z,19.60
2018-05-31T19:53:44.057Z,19.70
2018-05-31T19:59:17.750Z,19.60
2018-05-31T20:02:05.296Z,19.60
2018-05-31T20:04:39.233Z,19.50
2018-05-31T20:09:59.846Z,19.40
2018-05-31T20:12:38.752Z,19.30
2018-05-31T20:15:07.839Z,19.30
2018-05-31T20:17:42.109Z,19.20
2018-05-31T20:20:10.482Z,19.10
2018-05-31T20:25:29.883Z,19.10
2018-05-31T20:27:58.574Z,19.10
2018-05-31T20:30:27.604Z,19.00
2018-05-31T20:33:02.323Z,19.00
2018-05-31T20:35:29.904Z,19.00
2018-05-31T20:37:57.415Z,18.90
2018-05-31T20:40:24.952Z,19.00
2018-05-31T20:42:52.638Z,18.90
2018-05-31T20:45:20.427Z,18.90
2018-05-31T20:47:48.753Z,18.90
2018-05-31T20:50:16.446Z,18.90
2018-05-31T20:52:44.219Z,18.90
2018-05-31T20:55:12.555Z,18.90
2018-05-31T20:57:40.260Z,18.80
2018-05-31T21:00:08.130Z,18.90
2018-05-31T21:02:35.689Z,18.80
2018-05-31T21:05:03.282Z,18.80
2018-05-31T21:07:31.214Z,18.80
2018-05-31T21:09:59.399Z,18.70
2018-05-31T21:12:27.282Z,18.70
2018-05-31T21:14:56.074Z,18.60
2018-05-31T21:17:24.586Z,18.50
2018-05-31T21:19:52.387Z,18.50
2018-05-31T21:22:20.087Z,18.50
2018-05-31T21:24:48.397Z,18.40
2018-05-31T21:27:15.949Z,18.40
2018-05-31T21:29:43.753Z,18.40
2018-05-31T21:32:11.305Z,18.40
2018-05-31T21:34:38.988Z,18.30
2018-05-31T21:37:06.654Z,18.30
2018-05-31T21:39:35.116Z,18.20
2018-05-31T21:42:02.876Z,18.10
2018-05-31T21:44:30.510Z,18.10
2018-05-31T21:46:58.161Z,18.00
2018-05-31T21:49:26.495Z,18.00
2018-05-31T21:51:54.197Z,17.90
2018-05-31T21:54:22.610Z,17.90
2018-05-31T21:56:50.380Z,17.90
2018-05-31T21:59:18.148Z,17.90
2018-05-31T22:01:45.809Z,17.80
2018-05-31T22:04:13.612Z,17.80
2018-05-31T22:06:41.378Z,17.70
2018-05-31T22:09:08.894Z,17.70
2018-05-31T22:11:36.655Z,17.60
2018-05-31T22:14:05.050Z,17.60
2018-05-31T22:16:32.579Z,17.50
2018-05-31T22:19:01.807Z,17.50
2018-05-31T22:21:29.346Z,17.40
2018-05-31T22:23:57.477Z,17.40
2018-05-31T22:26:25.224Z,17.40
2018-05-31T22:28:53.899Z,17.30
2018-05-31T22:31:21.493Z,17.20
2018-05-31T22:33:49.008Z,17.30
2018-05-31T22:36:16.639Z,17.20
2018-05-31T22:38:45.253Z,17.10
2018-05-31T22:41:12.883Z,17.10
2018-05-31T22:43:40.447Z,17.10
2018-05-31T22:46:09.081Z,17.00
2018-05-31T22:48:36.719Z,16.90
2018-05-31T22:51:04.323Z,17.00
2018-05-31T22:53:32.063Z,16.90
2018-05-31T22:55:59.746Z,17.00
2018-05-31T22:58:27.329Z,17.00
2018-05-31T23:00:55.211Z,17.00
2018-05-31T23:03:23.636Z,17.00
2018-05-31T23:05:51.451Z,16.90
2018-05-31T23:08:19.150Z,16.90
2018-05-31T23:10:47.593Z,16.90
2018-05-31T23:13:15.191Z,16.80
2018-05-31T23:15:43.575Z,16.70
2018-05-31T23:18:11.153Z,16.70
2018-05-31T23:20:38.887Z,16.70
2018-05-31T23:23:07.230Z,16.70
2018-05-31T23:25:34.949Z,16.60
2018-05-31T23:28:02.775Z,16.60
2018-05-31T23:30:30.544Z,16.60
2018-05-31T23:32:58.253Z,16.60
2018-05-31T23:35:26.235Z,16.60
2018-05-31T23:43:32.719Z,16.60
2018-05-31T23:46:01.134Z,16.50
2018-05-31T23:48:28.867Z,16.50
2018-05-31T23:50:56.628Z,16.50
2018-05-31T23:53:24.963Z,16.40
2018-05-31T23:55:52.690Z,16.40
2018-05-31T23:58:20.413Z,16.40
